Latest Weather Observations for Lake Grace

IDW60801

Issued at 5:05 pm WST Sunday 26 October 2014 (issued every 30 minutes, with the page automatically refreshed every 10 minutes)

About weather observations | Map of weather stations | Latest weather observations for WA | Other Formats
Station Details ID: 010911 Name: LAKE GRACE Lat: -33.10 Lon: 118.46 Height: 286.0 m
Data from the previous 72 hours. | See also: Recent months at Lake Grace
Date/Time
WST
Temp
°C
App
Temp
°C
Dew
Point
Rel
Hum
%
Delta-T
°C
Wind Press
QNH
hPa
Press
MSL
hPa
Rain
since 9 am
mm
Dir
 
Spd
km/h
Gust
km/h
Spd
kts
Gust
kts
26/05:00pm 21.5 17.9 6.6 38 7.7 SW 15 20 8 11 1020.9 1020.4 0.0
26/04:30pm 21.9 18.6 6.2 36 8.0 SW 13 20 7 11 1020.7 1020.2 0.0
26/04:00pm 21.5 17.9 6.6 38 7.7 SW 15 24 8 13 1020.6 1020.1 0.0
26/03:30pm 22.1 18.4 6.3 36 8.1 SW 15 28 8 15 1020.4 1020.0 0.0
26/03:00pm 21.6 18.5 7.4 40 7.4 SW 13 17 7 9 1020.2 1019.8 0.0
26/02:30pm 21.2 16.8 7.4 41 7.2 S 20 24 11 13 1020.4 1020.0 0.0
26/02:00pm 20.8 17.3 7.4 42 7.0 W 15 24 8 13 1020.7 1020.2 0.0
26/01:30pm 20.6 17.0 8.3 45 6.5 SW 17 24 9 13 1020.9 1020.4 0.0
26/01:00pm 21.4 18.5 9.6 47 6.4 WSW 15 24 8 13 1020.9 1020.4 0.0
26/12:30pm 20.2 16.9 9.5 50 5.8 W 17 24 9 13 1021.1 1020.6 0.0
26/12:00pm 19.0 16.1 9.8 55 4.9 SW 15 24 8 13 1021.3 1020.8 0.0
26/11:30am 18.2 14.9 9.5 57 4.6 SW 17 24 9 13 1021.4 1020.9 0.0
26/11:00am 17.6 14.7 9.8 60 4.2 SW 15 24 8 13 1021.7 1021.2 0.0
26/10:30am 17.2 14.6 10.8 66 3.5 SW 15 24 8 13 1021.8 1021.3 0.0
26/10:00am 16.2 13.1 10.3 68 3.1 WSW 17 26 9 14 1021.7 1021.2 0.0
26/09:30am 16.2 12.5 10.1 67 3.3 SW 20 28 11 15 1021.5 1021.0 0.0
26/09:00am 16.1 12.5 10.0 67 3.2 WSW 19 30 10 16 1021.1 1020.6 0.0
26/08:30am 15.7 12.5 9.8 68 3.1 WSW 17 28 9 15 1020.9 1020.4 0.0
26/08:00am 15.5 11.8 9.4 67 3.2 WSW 19 30 10 16 1020.7 1020.2 0.0
26/07:30am 15.6 11.7 9.5 67 3.2 WNW 20 35 11 19 1020.3 1019.9 0.0
26/07:00am 14.5 11.2 9.5 72 2.6 WNW 17 24 9 13 1020.0 1019.6 0.0
26/06:30am 13.4 11.2 9.5 77 2.0 NW 11 17 6 9 1019.4 1019.0 0.0
26/06:00am 12.6 10.4 9.2 80 1.7 NW 11 15 6 8 1019.2 1018.8 0.0
26/05:30am 11.9 10.3 8.9 82 1.5 NNW 7 11 4 6 1018.9 1018.5 0.0
26/05:00am 12.0 10.0 8.7 80 1.7 NW 9 11 5 6 1018.5 1018.0 0.0
26/04:30am 12.9 10.5 8.6 75 2.2 NW 11 15 6 8 1018.4 1017.9 0.0
26/04:00am 13.1 11.0 9.7 80 1.8 NW 11 19 6 10 1018.3 1017.8 0.0
26/03:30am 12.6 10.9 9.8 83 1.5 NW 9 13 5 7 1018.3 1017.8 0.0
26/03:00am 12.6 10.5 9.8 83 1.4 WNW 11 17 6 9 1018.2 1017.7 0.0
26/02:30am 12.5 10.6 9.1 80 1.7 WNW 9 11 5 6 1018.2 1017.7 0.0
26/02:00am 12.3 10.9 8.8 79 1.8 WNW 6 9 3 5 1018.2 1017.7 0.0
26/01:30am 12.6 10.9 8.5 76 2.1 WNW 7 11 4 6 1018.2 1017.7 0.0
26/01:00am 13.1 11.1 8.6 74 2.3 WNW 9 17 5 9 1018.1 1017.6 0.0
26/12:30am 13.4 10.2 8.5 72 2.5 W 15 20 8 11 1018.2 1017.7 0.0
26/12:00am 13.9 10.4 8.7 71 2.7 W 17 24 9 13 1018.4 1017.9 0.0
 
Date/Time
WST
Temp
°C
App
Temp
°C
Dew
Point
Rel
Hum
%
Delta-T
°C
Wind Press
QNH
hPa
Press
MSL
hPa
Rain
since 9 am
mm
Dir
 
Spd
km/h
Gust
km/h
Spd
kts
Gust
kts
25/11:30pm 14.4 10.6 9.2 71 2.7 WNW 19 30 10 16 1018.5 1018.0 0.0
25/11:00pm 15.4 11.8 10.4 72 2.7 WNW 20 30 11 16 1018.4 1017.9 0.0
25/10:30pm 16.3 12.7 10.6 69 3.1 W 20 33 11 18 1017.9 1017.4 0.0
25/10:00pm 16.7 14.7 12.7 77 2.2 WNW 15 24 8 13 1017.8 1017.3 0.0
25/09:30pm 16.9 15.0 13.0 78 2.2 WNW 15 24 8 13 1017.8 1017.3 0.0
25/09:00pm 17.9 15.9 12.8 72 2.9 W 15 24 8 13 1018.0 1017.5 0.0
25/08:30pm 18.3 15.3 12.5 69 3.3 W 20 32 11 17 1017.8 1017.3 0.0
25/08:00pm 18.8 15.8 12.1 65 3.8 WNW 19 26 10 14 1017.4 1016.9 0.0
25/07:30pm 19.5 16.7 11.5 60 4.5 W 17 24 9 13 1016.9 1016.4 0.0
25/07:00pm 20.7 17.7 10.8 53 5.5 WSW 17 22 9 12 1016.4 1016.0 0.0
25/06:30pm 21.1 17.3 9.7 48 6.2 WNW 20 28 11 15 1016.0 1015.6 0.0
25/06:00pm 22.0 17.3 9.2 44 6.9 WNW 24 33 13 18 1015.6 1015.1 0.0
25/05:30pm 22.8 18.9 9.6 43 7.2 WNW 20 30 11 16 1015.2 1014.7 0.0
25/05:00pm 23.2 19.9 9.6 42 7.5 WNW 17 24 9 13 1015.0 1014.5 0.0
25/04:30pm 23.9 20.8 10.2 42 7.6 W 17 26 9 14 1015.0 1014.5 0.0
25/04:00pm 23.2 18.7 9.9 43 7.3 WSW 24 35 13 19 1014.9 1014.4 0.0
25/03:30pm 24.0 19.8 9.9 41 7.8 WNW 22 33 12 18 1014.7 1014.2 0.0
25/03:00pm 23.6 19.4 9.6 41 7.7 WSW 22 30 12 16 1014.6 1014.1 0.0
25/02:30pm 23.7 19.6 10.0 42 7.6 W 22 33 12 18 1014.3 1013.8 0.0
25/02:00pm 23.8 19.0 9.0 39 8.1 W 24 33 13 18 1014.3 1013.8 0.0
25/01:30pm 23.5 19.0 9.9 42 7.5 WNW 24 35 13 19 1014.7 1014.2 0.0
25/01:00pm 23.2 19.0 9.6 42 7.5 W 22 35 12 19 1014.8 1014.3 0.0
25/12:30pm 23.1 19.4 10.2 44 7.2 WSW 20 28 11 15 1014.7 1014.2 0.0
25/12:00pm 23.1 18.8 9.5 42 7.5 WNW 22 32 12 17 1014.8 1014.3 0.0
25/11:30am 22.8 19.1 10.3 45 6.9 WSW 20 30 11 16 1014.7 1014.2 0.0
25/11:00am 22.0 18.4 9.9 46 6.6 W 19 26 10 14 1015.0 1014.5 0.0
25/10:30am 21.8 18.3 10.3 48 6.4 WSW 19 24 10 13 1015.3 1014.8 0.0
25/10:00am 20.4 16.8 9.9 51 5.7 WSW 19 26 10 14 1015.3 1014.8 0.0
25/09:30am 19.7 16.5 11.2 58 4.7 WSW 19 26 10 14 1015.5 1015.0 0.0
25/09:00am 19.0 16.9 12.3 65 3.8 WSW 15 22 8 12 1015.4 1014.9 0.0
25/08:30am 17.4 15.9 14.1 81 1.9 WSW 15 22 8 12 1015.4 1014.9 0.0
25/08:00am 15.2 14.4 14.1 93 0.6 WSW 11 19 6 10 1015.5 1015.0 0.0
25/07:30am 14.3 13.3 13.5 95 0.5 WSW 11 17 6 9 1015.5 1015.0 0.0
25/07:00am 13.7 13.3 13.1 96 0.3 WSW 7 13 4 7 1015.3 1014.8 0.0
25/06:30am 13.5 12.7 12.9 96 0.3 SSW 9 11 5 6 1015.2 1014.7 0.0
25/06:00am 13.6 13.2 13.0 96 0.3 S 7 13 4 7 1015.0 1014.5 0.0
25/05:30am 13.1 12.7 12.3 95 0.4 SSE 6 9 3 5 1014.8 1014.3 0.0
25/05:00am 12.6 12.0 11.8 95 0.4 S 6 7 3 4 1014.7 1014.2 0.0
25/04:30am 13.1 12.6 12.2 94 0.5 S 6 9 3 5 1014.6 1014.1 0.0
25/04:00am 13.4 13.0 12.5 94 0.5 SE 6 9 3 5 1014.2 1013.7 0.0
25/03:30am 13.5 13.2 12.6 94 0.5 SSE 6 7 3 4 1014.1 1013.6 0.0
25/03:00am 13.5 13.1 12.4 93 0.6 S 6 9 3 5 1014.1 1013.6 0.0
25/02:30am 13.6 13.1 12.5 93 0.6 S 7 9 4 5 1013.9 1013.4 0.0
25/02:00am 13.7 13.3 12.4 92 0.7 SW 6 9 3 5 1014.0 1013.5 0.0
25/01:30am 13.8 13.2 12.4 91 0.8 ESE 7 11 4 6 1013.8 1013.3 0.0
25/01:00am 14.2 13.4 12.8 91 0.8 SE 9 13 5 7 1014.0 1013.5 0.0
25/12:30am 14.5 14.1 12.9 90 0.9 SSE 7 9 4 5 1014.3 1013.8 0.0
25/12:00am 14.7 13.9 12.9 89 1.0 S 9 13 5 7 1014.8 1014.3 0.0
 
Date/Time
WST
Temp
°C
App
Temp
°C
Dew
Point
Rel
Hum
%
Delta-T
°C
Wind Press
QNH
hPa
Press
MSL
hPa
Rain
since 9 am
mm
Dir
 
Spd
km/h
Gust
km/h
Spd
kts
Gust
kts
24/11:30pm 15.2 14.5 13.1 87 1.2 ESE 9 11 5 6 1014.7 1014.2 0.0
24/11:00pm 15.4 14.7 13.1 86 1.3 ESE 9 13 5 7 1014.9 1014.4 0.0
24/10:30pm 15.7 14.9 13.0 84 1.5 SE 9 15 5 8 1015.0 1014.5 0.0
24/10:00pm 16.2 14.9 12.4 78 2.1 SE 11 15 6 8 1015.1 1014.6 0.0
24/09:30pm 18.0 17.3 12.0 68 3.4 SE 7 11 4 6 1014.9 1014.4 0.0
24/09:00pm 18.7 18.1 11.8 64 3.9 SE 6 7 3 4 1014.8 1014.3 0.0
24/08:30pm 19.3 18.8 12.1 63 4.1 ENE 6 7 3 4 1014.9 1014.4 0.0
24/08:00pm 20.2 19.7 12.2 60 4.5 SSE 6 7 3 4 1014.8 1014.3 0.0
24/07:30pm 21.3 20.7 11.6 54 5.5 ESE 6 7 3 4 1014.6 1014.1 0.0
24/07:00pm 22.4 21.1 9.9 45 6.9 WSW 7 9 4 5 1014.5 1014.0 0.0
24/06:30pm 23.5 22.0 9.1 40 7.9 W 7 9 4 5 1014.5 1014.0 0.0
24/06:00pm 24.6 22.2 8.5 36 8.7 NW 11 15 6 8 1014.2 1013.7 0.0
24/05:30pm 24.8 22.0 8.7 36 8.8 NNW 13 19 7 10 1014.2 1013.7 0.0
24/05:00pm 25.9 22.7 8.4 33 9.6 NW 15 20 8 11 1014.0 1013.5 0.0
24/04:30pm 25.4 23.8 8.8 35 9.1 NW 7 13 4 7 1014.1 1013.6 0.0
24/04:00pm 24.9 22.7 9.2 37 8.6 NNW 11 19 6 10 1014.2 1013.7 0.0
24/03:30pm 25.3 23.4 9.2 36 8.9 NW 9 20 5 11 1014.5 1014.0 0.0
24/03:00pm 24.8 22.0 8.7 36 8.8 NW 13 20 7 11 1014.8 1014.3 0.0
24/02:30pm 24.9 22.5 10.0 39 8.3 NW 13 19 7 10 1014.9 1014.4 0.0
24/02:00pm 24.6 23.0 10.1 40 8.1 NNW 9 19 5 10 1015.2 1014.7 0.0
24/01:30pm 23.2 20.7 9.6 42 7.5 NNW 13 30 7 16 1015.6 1015.1 0.0
24/01:00pm 22.7 21.3 10.8 47 6.7 N 9 13 5 7 1016.0 1015.6 0.0
24/12:30pm 23.5 21.3 10.9 45 7.1 N 13 28 7 15 1016.4 1016.0 0.0
24/12:00pm 21.8 19.6 10.9 50 6.1 N 13 20 7 11 1017.0 1016.5 0.0
24/11:30am 21.1 19.1 10.3 50 5.9 N 11 15 6 8 1017.4 1016.9 0.0
24/11:00am 21.0 19.8 11.6 55 5.3 ENE 9 17 5 9 1017.9 1017.4 0.0
24/10:30am 19.3 17.5 10.8 58 4.7 NE 11 22 6 12 1018.1 1017.6 0.0
24/10:00am 18.8 16.7 11.1 61 4.2 ENE 13 20 7 11 1018.5 1018.0 0.0
24/09:30am 17.5 15.0 10.9 65 3.6 ENE 15 20 8 11 1018.4 1017.9 0.0
24/09:00am 16.9 14.8 11.2 69 3.1 ENE 13 20 7 11 1018.9 1018.5 0.0
24/08:30am 15.9 14.2 11.1 73 2.6 ENE 11 17 6 9 1018.7 1018.2 0.0
24/08:00am 15.1 12.9 10.9 76 2.3 E 13 19 7 10 1018.9 1018.5 0.0
24/07:30am 14.0 12.6 11.0 82 1.6 ESE 9 15 5 8 1018.9 1018.5 0.0
24/07:00am 13.0 11.6 10.9 87 1.1 ESE 9 17 5 9 1018.9 1018.5 0.0
24/06:30am 12.0 10.1 10.6 91 0.7 ESE 11 17 6 9 1018.7 1018.2 0.0
24/06:00am 10.8 10.0 9.7 93 0.6 ESE 4 7 2 4 1018.7 1018.2 0.0
24/05:30am 10.0 8.4 8.9 93 0.6 SE 7 9 4 5 1018.3 1017.8 0.0
24/05:00am 10.1 8.7 9.0 93 0.6 ESE 6 7 3 4 1018.4 1017.9 0.0
24/04:30am 10.1 8.7 9.0 93 0.6 SSE 6 7 3 4 1018.3 1017.8 0.0
24/04:00am 10.2 10.0 9.0 92 0.6 CALM 0 0 0 0 1018.3 1017.8 0.0
24/03:30am 10.4 9.1 9.2 92 0.6 SSE 6 7 3 4 1018.1 1017.6 0.0
24/03:00am 10.6 9.1 9.2 91 0.7 SSE 7 9 4 5 1017.8 1017.3 0.0
24/02:30am 10.9 9.5 9.5 91 0.7 SE 7 11 4 6 1017.9 1017.4 0.0
24/02:00am 11.1 9.3 9.5 90 0.8 SSE 9 11 5 6 1018.0 1017.5 0.0
24/01:30am 11.5 9.4 9.8 89 0.9 S 11 19 6 10 1017.9 1017.4 0.0
24/01:00am 11.6 9.9 9.9 89 0.9 S 9 15 5 8 1018.1 1017.6 0.0
24/12:30am 12.1 10.5 10.2 88 1.0 SSE 9 13 5 7 1018.1 1017.6 0.0
24/12:00am 12.4 10.4 10.3 87 1.1 S 11 17 6 9 1018.3 1017.8 0.0
 
Date/Time
WST
Temp
°C
App
Temp
°C
Dew
Point
Rel
Hum
%
Delta-T
°C
Wind Press
QNH
hPa
Press
MSL
hPa
Rain
since 9 am
mm
Dir
 
Spd
km/h
Gust
km/h
Spd
kts
Gust
kts
23/11:30pm 12.8 10.5 10.3 85 1.3 S 13 19 7 10 1018.2 1017.7 0.0
23/11:00pm 13.1 11.1 10.3 83 1.5 S 11 15 6 8 1018.4 1017.9 0.0
23/10:30pm 13.6 11.7 10.4 81 1.7 S 11 17 6 9 1018.3 1017.8 0.0
23/10:00pm 14.0 10.6 10.6 80 1.8 S 19 26 10 14 1018.1 1017.6 0.0
23/09:30pm 14.5 11.1 10.7 78 2.0 S 19 26 10 14 1018.2 1017.7 0.0
23/09:00pm 15.0 12.4 10.6 75 2.3 S 15 24 8 13 1018.3 1017.8 0.0
23/08:30pm 15.7 12.8 11.1 74 2.5 S 17 26 9 14 1018.1 1017.6 0.0
23/08:00pm 15.9 13.8 11.1 73 2.6 S 13 19 7 10 1017.6 1017.1 0.0
23/07:30pm 16.7 13.9 11.2 70 3.0 S 17 26 9 14 1017.1 1016.6 0.0
23/07:00pm 17.3 14.9 11.3 68 3.3 S 15 22 8 12 1016.6 1016.2 0.0
23/06:30pm 18.3 15.0 11.6 65 3.7 S 20 32 11 17 1016.1 1015.7 0.0
23/06:00pm 20.2 17.0 11.1 56 5.1 SW 19 30 10 16 1015.2 1014.7 0.0
23/05:30pm 21.3 17.5 11.1 52 5.7 WSW 22 35 12 19 1014.8 1014.3 0.0

Other Formats:

Comma delimited format used in spreadsheet applications
http://www.bom.gov.au/fwo/IDW60801/IDW60801.95637.axf

JavaScript Object Notation format (JSON) in row-major order
http://www.bom.gov.au/fwo/IDW60801/IDW60801.95637.json